sensor_id;sensor_type;location;lat;lon;timestamp;P1;durP1;ratioP1;P2;durP2;ratioP2
50781;SDS011;36749;37.428;-121.972;2023-08-31T00:02:24;86.38;;;34.85;;
50781;SDS011;36749;37.428;-121.972;2023-08-31T00:04:51;57.33;;;32.28;;
50781;SDS011;36749;37.428;-121.972;2023-08-31T00:07:21;60.55;;;34.65;;
50781;SDS011;36749;37.428;-121.972;2023-08-31T00:09:47;46.85;;;33.15;;
50781;SDS011;36749;37.428;-121.972;2023-08-31T00:12:13;58.78;;;33.00;;
50781;SDS011;36749;37.428;-121.972;2023-08-31T00:14:39;47.58;;;33.20;;
50781;SDS011;36749;37.428;-121.972;2023-08-31T00:17:05;47.95;;;33.78;;
50781;SDS011;36749;37.428;-121.972;2023-08-31T00:19:32;46.22;;;33.90;;
50781;SDS011;36749;37.428;-121.972;2023-08-31T00:21:58;46.92;;;34.85;;
50781;SDS011;36749;37.428;-121.972;2023-08-31T00:24:24;51.53;;;34.42;;
50781;SDS011;36749;37.428;-121.972;2023-08-31T00:26:55;46.35;;;36.63;;
50781;SDS011;36749;37.428;-121.972;2023-08-31T00:29:21;51.17;;;37.25;;
50781;SDS011;36749;37.428;-121.972;2023-08-31T00:31:48;50.63;;;37.10;;
50781;SDS011;36749;37.428;-121.972;2023-08-31T00:34:16;47.83;;;38.08;;
50781;SDS011;36749;37.428;-121.972;2023-08-31T00:36:43;51.25;;;39.15;;
50781;SDS011;36749;37.428;-121.972;2023-08-31T00:39:09;51.17;;;38.53;;
50781;SDS011;36749;37.428;-121.972;2023-08-31T00:41:36;50.17;;;38.08;;
50781;SDS011;36749;37.428;-121.972;2023-08-31T00:44:03;53.97;;;39.63;;
50781;SDS011;36749;37.428;-121.972;2023-08-31T00:46:30;48.53;;;38.88;;
50781;SDS011;36749;37.428;-121.972;2023-08-31T00:48:57;51.50;;;40.15;;
50781;SDS011;36749;37.428;-121.972;2023-08-31T00:51:24;59.88;;;40.85;;
50781;SDS011;36749;37.428;-121.972;2023-08-31T00:53:53;47.03;;;37.85;;
50781;SDS011;36749;37.428;-121.972;2023-08-31T00:56:20;49.90;;;39.30;;
50781;SDS011;36749;37.428;-121.972;2023-08-31T00:58:47;53.55;;;38.72;;
50781;SDS011;36749;37.428;-121.972;2023-08-31T01:01:19;46.13;;;38.03;;
50781;SDS011;36749;37.428;-121.972;2023-08-31T01:04:09;55.00;;;38.72;;
50781;SDS011;36749;37.428;-121.972;2023-08-31T01:12:15;50.25;;;40.60;;
50781;SDS011;36749;37.428;-121.972;2023-08-31T01:14:54;53.85;;;39.33;;
50781;SDS011;36749;37.428;-121.972;2023-08-31T01:17:28;53.53;;;40.60;;
50781;SDS011;36749;37.428;-121.972;2023-08-31T01:19:57;52.05;;;41.13;;
50781;SDS011;36749;37.428;-121.972;2023-08-31T01:22:30;53.30;;;42.00;;
50781;SDS011;36749;37.428;-121.972;2023-08-31T01:25:06;52.42;;;41.88;;
50781;SDS011;36749;37.428;-121.972;2023-08-31T01:27:34;55.15;;;44.10;;
50781;SDS011;36749;37.428;-121.972;2023-08-31T01:30:05;57.90;;;45.35;;
50781;SDS011;36749;37.428;-121.972;2023-08-31T01:32:32;56.38;;;44.90;;
50781;SDS011;36749;37.428;-121.972;2023-08-31T01:34:58;55.25;;;43.97;;
50781;SDS011;36749;37.428;-121.972;2023-08-31T01:37:31;54.67;;;43.90;;
50781;SDS011;36749;37.428;-121.972;2023-08-31T01:40:08;54.50;;;46.55;;
50781;SDS011;36749;37.428;-121.972;2023-08-31T01:42:36;57.05;;;45.00;;
50781;SDS011;36749;37.428;-121.972;2023-08-31T01:45:02;53.90;;;44.67;;
50781;SDS011;36749;37.428;-121.972;2023-08-31T01:47:29;58.72;;;44.97;;
50781;SDS011;36749;37.428;-121.972;2023-08-31T01:49:57;56.03;;;44.13;;
50781;SDS011;36749;37.428;-121.972;2023-08-31T01:52:23;51.20;;;41.47;;
50781;SDS011;36749;37.428;-121.972;2023-08-31T01:54:51;56.72;;;43.83;;
50781;SDS011;36749;37.428;-121.972;2023-08-31T01:57:17;54.28;;;43.58;;
50781;SDS011;36749;37.428;-121.972;2023-08-31T01:59:44;53.83;;;44.50;;
50781;SDS011;36749;37.428;-121.972;2023-08-31T02:02:10;57.25;;;45.30;;
50781;SDS011;36749;37.428;-121.972;2023-08-31T02:04:36;55.22;;;44.92;;
50781;SDS011;36749;37.428;-121.972;2023-08-31T02:07:03;58.75;;;45.78;;
50781;SDS011;36749;37.428;-121.972;2023-08-31T02:09:29;57.08;;;45.60;;
50781;SDS011;36749;37.428;-121.972;2023-08-31T02:11:55;53.35;;;45.05;;
50781;SDS011;36749;37.428;-121.972;2023-08-31T02:14:22;58.65;;;45.67;;
50781;SDS011;36749;37.428;-121.972;2023-08-31T02:16:49;56.45;;;45.13;;
50781;SDS011;36749;37.428;-121.972;2023-08-31T02:19:16;57.80;;;45.33;;
50781;SDS011;36749;37.428;-121.972;2023-08-31T02:21:42;52.22;;;44.05;;
50781;SDS011;36749;37.428;-121.972;2023-08-31T02:24:09;56.60;;;45.05;;
50781;SDS011;36749;37.428;-121.972;2023-08-31T02:26:37;59.13;;;46.67;;
50781;SDS011;36749;37.428;-121.972;2023-08-31T02:29:06;57.83;;;45.50;;
50781;SDS011;36749;37.428;-121.972;2023-08-31T02:31:32;56.03;;;44.95;;
50781;SDS011;36749;37.428;-121.972;2023-08-31T02:33:59;59.10;;;45.83;;
50781;SDS011;36749;37.428;-121.972;2023-08-31T02:36:26;53.78;;;44.28;;
50781;SDS011;36749;37.428;-121.972;2023-08-31T02:38:52;53.92;;;44.35;;
50781;SDS011;36749;37.428;-121.972;2023-08-31T02:41:19;54.97;;;44.70;;
50781;SDS011;36749;37.428;-121.972;2023-08-31T02:43:45;57.95;;;45.85;;
50781;SDS011;36749;37.428;-121.972;2023-08-31T02:46:11;70.38;;;55.88;;
50781;SDS011;36749;37.428;-121.972;2023-08-31T02:48:38;58.53;;;46.72;;
50781;SDS011;36749;37.428;-121.972;2023-08-31T02:51:04;56.03;;;44.03;;
50781;SDS011;36749;37.428;-121.972;2023-08-31T02:53:30;57.00;;;44.95;;
50781;SDS011;36749;37.428;-121.972;2023-08-31T02:55:57;50.78;;;41.05;;
50781;SDS011;36749;37.428;-121.972;2023-08-31T02:58:23;56.95;;;44.20;;
50781;SDS011;36749;37.428;-121.972;2023-08-31T03:00:50;54.83;;;45.85;;
50781;SDS011;36749;37.428;-121.972;2023-08-31T03:03:16;58.13;;;47.35;;
50781;SDS011;36749;37.428;-121.972;2023-08-31T03:05:43;61.30;;;48.50;;
50781;SDS011;36749;37.428;-121.972;2023-08-31T03:08:10;58.20;;;47.78;;
50781;SDS011;36749;37.428;-121.972;2023-08-31T03:10:37;60.85;;;48.30;;
50781;SDS011;36749;37.428;-121.972;2023-08-31T03:13:04;57.42;;;48.22;;
50781;SDS011;36749;37.428;-121.972;2023-08-31T03:15:34;54.60;;;44.75;;
50781;SDS011;36749;37.428;-121.972;2023-08-31T03:18:00;58.03;;;47.03;;
50781;SDS011;36749;37.428;-121.972;2023-08-31T03:20:27;54.72;;;43.65;;
50781;SDS011;36749;37.428;-121.972;2023-08-31T03:22:53;55.67;;;43.47;;
50781;SDS011;36749;37.428;-121.972;2023-08-31T03:25:19;55.78;;;43.35;;
50781;SDS011;36749;37.428;-121.972;2023-08-31T03:27:45;61.35;;;45.00;;
50781;SDS011;36749;37.428;-121.972;2023-08-31T03:30:11;55.17;;;43.88;;
50781;SDS011;36749;37.428;-121.972;2023-08-31T03:32:38;58.22;;;44.55;;
50781;SDS011;36749;37.428;-121.972;2023-08-31T03:35:22;53.65;;;42.28;;
50781;SDS011;36749;37.428;-121.972;2023-08-31T03:37:52;60.85;;;44.20;;
50781;SDS011;36749;37.428;-121.972;2023-08-31T03:40:19;57.65;;;42.60;;
50781;SDS011;36749;37.428;-121.972;2023-08-31T03:42:45;56.97;;;44.58;;
50781;SDS011;36749;37.428;-121.972;2023-08-31T03:45:11;53.53;;;43.13;;
50781;SDS011;36749;37.428;-121.972;2023-08-31T03:47:38;56.60;;;44.05;;
50781;SDS011;36749;37.428;-121.972;2023-08-31T03:50:06;56.92;;;44.15;;
50781;SDS011;36749;37.428;-121.972;2023-08-31T03:52:33;53.78;;;43.00;;
50781;SDS011;36749;37.428;-121.972;2023-08-31T03:54:59;53.13;;;42.58;;
50781;SDS011;36749;37.428;-121.972;2023-08-31T03:57:26;53.75;;;41.55;;
50781;SDS011;36749;37.428;-121.972;2023-08-31T03:59:52;54.08;;;41.75;;
50781;SDS011;36749;37.428;-121.972;2023-08-31T04:02:18;52.50;;;40.63;;
50781;SDS011;36749;37.428;-121.972;2023-08-31T04:04:44;50.22;;;40.45;;
50781;SDS011;36749;37.428;-121.972;2023-08-31T04:07:11;56.25;;;42.72;;
50781;SDS011;36749;37.428;-121.972;2023-08-31T04:09:37;52.03;;;40.50;;
50781;SDS011;36749;37.428;-121.972;2023-08-31T04:12:03;51.55;;;41.13;;
50781;SDS011;36749;37.428;-121.972;2023-08-31T04:14:30;53.30;;;42.40;;
50781;SDS011;36749;37.428;-121.972;2023-08-31T04:16:56;55.33;;;43.53;;
50781;SDS011;36749;37.428;-121.972;2023-08-31T04:19:22;54.35;;;43.42;;
50781;SDS011;36749;37.428;-121.972;2023-08-31T04:21:48;51.28;;;41.55;;
50781;SDS011;36749;37.428;-121.972;2023-08-31T04:24:15;61.17;;;45.05;;
50781;SDS011;36749;37.428;-121.972;2023-08-31T04:26:42;54.10;;;41.38;;
50781;SDS011;36749;37.428;-121.972;2023-08-31T04:29:10;54.90;;;41.60;;
50781;SDS011;36749;37.428;-121.972;2023-08-31T04:31:36;53.50;;;41.05;;
50781;SDS011;36749;37.428;-121.972;2023-08-31T04:34:03;61.42;;;42.60;;
50781;SDS011;36749;37.428;-121.972;2023-08-31T04:36:29;57.95;;;42.05;;
50781;SDS011;36749;37.428;-121.972;2023-08-31T04:38:55;49.92;;;40.30;;
50781;SDS011;36749;37.428;-121.972;2023-08-31T04:41:22;57.70;;;42.13;;
50781;SDS011;36749;37.428;-121.972;2023-08-31T04:43:48;57.42;;;43.10;;
50781;SDS011;36749;37.428;-121.972;2023-08-31T04:46:14;54.55;;;40.50;;
50781;SDS011;36749;37.428;-121.972;2023-08-31T04:48:41;57.28;;;41.75;;
50781;SDS011;36749;37.428;-121.972;2023-08-31T04:51:09;52.92;;;39.88;;
50781;SDS011;36749;37.428;-121.972;2023-08-31T04:53:52;50.40;;;37.90;;
50781;SDS011;36749;37.428;-121.972;2023-08-31T04:56:19;49.45;;;36.00;;
50781;SDS011;36749;37.428;-121.972;2023-08-31T04:58:45;44.85;;;33.67;;
50781;SDS011;36749;37.428;-121.972;2023-08-31T05:01:11;49.00;;;34.33;;
50781;SDS011;36749;37.428;-121.972;2023-08-31T05:03:37;46.60;;;32.13;;
50781;SDS011;36749;37.428;-121.972;2023-08-31T05:06:03;43.63;;;30.52;;
50781;SDS011;36749;37.428;-121.972;2023-08-31T05:08:30;45.00;;;30.55;;
50781;SDS011;36749;37.428;-121.972;2023-08-31T05:10:56;47.40;;;30.13;;
50781;SDS011;36749;37.428;-121.972;2023-08-31T05:13:22;47.30;;;29.23;;
50781;SDS011;36749;37.428;-121.972;2023-08-31T05:15:48;49.28;;;28.77;;
50781;SDS011;36749;37.428;-121.972;2023-08-31T05:18:15;44.88;;;28.63;;
50781;SDS011;36749;37.428;-121.972;2023-08-31T05:20:44;45.22;;;28.83;;
50781;SDS011;36749;37.428;-121.972;2023-08-31T05:23:11;41.65;;;27.55;;
50781;SDS011;36749;37.428;-121.972;2023-08-31T05:25:46;42.40;;;28.00;;
50781;SDS011;36749;37.428;-121.972;2023-08-31T05:28:12;42.85;;;27.25;;
50781;SDS011;36749;37.428;-121.972;2023-08-31T05:30:48;49.88;;;26.77;;
50781;SDS011;36749;37.428;-121.972;2023-08-31T05:33:15;41.78;;;25.75;;
50781;SDS011;36749;37.428;-121.972;2023-08-31T05:35:45;39.15;;;23.80;;
50781;SDS011;36749;37.428;-121.972;2023-08-31T05:38:11;41.50;;;23.52;;
50781;SDS011;36749;37.428;-121.972;2023-08-31T05:40:38;42.88;;;23.63;;
50781;SDS011;36749;37.428;-121.972;2023-08-31T05:43:04;39.92;;;23.27;;
50781;SDS011;36749;37.428;-121.972;2023-08-31T05:45:33;47.10;;;25.30;;
50781;SDS011;36749;37.428;-121.972;2023-08-31T05:48:00;42.22;;;23.48;;
50781;SDS011;36749;37.428;-121.972;2023-08-31T05:50:27;42.70;;;24.00;;
50781;SDS011;36749;37.428;-121.972;2023-08-31T05:52:53;39.97;;;23.17;;
50781;SDS011;36749;37.428;-121.972;2023-08-31T05:55:20;40.65;;;23.05;;
50781;SDS011;36749;37.428;-121.972;2023-08-31T05:57:46;40.15;;;22.73;;
50781;SDS011;36749;37.428;-121.972;2023-08-31T06:00:13;40.03;;;22.52;;
50781;SDS011;36749;37.428;-121.972;2023-08-31T06:02:39;39.67;;;21.38;;
50781;SDS011;36749;37.428;-121.972;2023-08-31T06:05:06;41.22;;;22.38;;
50781;SDS011;36749;37.428;-121.972;2023-08-31T06:07:33;46.03;;;22.33;;
50781;SDS011;36749;37.428;-121.972;2023-08-31T06:09:59;39.88;;;22.75;;
50781;SDS011;36749;37.428;-121.972;2023-08-31T06:12:25;40.55;;;22.02;;
50781;SDS011;36749;37.428;-121.972;2023-08-31T06:14:51;39.28;;;21.60;;
50781;SDS011;36749;37.428;-121.972;2023-08-31T06:17:17;43.83;;;22.55;;
50781;SDS011;36749;37.428;-121.972;2023-08-31T06:19:43;38.47;;;20.25;;
50781;SDS011;36749;37.428;-121.972;2023-08-31T06:22:10;36.20;;;21.27;;
50781;SDS011;36749;37.428;-121.972;2023-08-31T06:24:36;37.25;;;20.52;;
50781;SDS011;36749;37.428;-121.972;2023-08-31T06:27:03;33.10;;;19.55;;
50781;SDS011;36749;37.428;-121.972;2023-08-31T06:29:29;39.10;;;20.17;;
50781;SDS011;36749;37.428;-121.972;2023-08-31T06:31:55;36.58;;;20.45;;
50781;SDS011;36749;37.428;-121.972;2023-08-31T06:34:22;39.85;;;20.30;;
50781;SDS011;36749;37.428;-121.972;2023-08-31T06:36:48;43.58;;;21.13;;
50781;SDS011;36749;37.428;-121.972;2023-08-31T06:39:14;35.80;;;20.50;;
50781;SDS011;36749;37.428;-121.972;2023-08-31T06:41:41;42.67;;;21.55;;
50781;SDS011;36749;37.428;-121.972;2023-08-31T06:44:07;44.28;;;19.83;;
50781;SDS011;36749;37.428;-121.972;2023-08-31T06:46:33;42.33;;;20.92;;
50781;SDS011;36749;37.428;-121.972;2023-08-31T06:49:06;38.65;;;19.60;;
50781;SDS011;36749;37.428;-121.972;2023-08-31T06:51:32;40.05;;;20.42;;
50781;SDS011;36749;37.428;-121.972;2023-08-31T06:53:59;41.13;;;20.38;;
50781;SDS011;36749;37.428;-121.972;2023-08-31T06:56:34;41.00;;;20.15;;
50781;SDS011;36749;37.428;-121.972;2023-08-31T06:59:01;44.00;;;21.05;;
50781;SDS011;36749;37.428;-121.972;2023-08-31T07:01:28;40.03;;;19.67;;
50781;SDS011;36749;37.428;-121.972;2023-08-31T07:03:54;44.63;;;20.92;;
50781;SDS011;36749;37.428;-121.972;2023-08-31T07:06:21;40.90;;;20.92;;
50781;SDS011;36749;37.428;-121.972;2023-08-31T07:08:47;37.58;;;20.65;;
50781;SDS011;36749;37.428;-121.972;2023-08-31T07:11:14;39.33;;;20.80;;
50781;SDS011;36749;37.428;-121.972;2023-08-31T07:13:41;36.92;;;19.98;;
50781;SDS011;36749;37.428;-121.972;2023-08-31T07:16:07;35.28;;;19.20;;
50781;SDS011;36749;37.428;-121.972;2023-08-31T07:18:33;40.03;;;20.55;;
50781;SDS011;36749;37.428;-121.972;2023-08-31T07:21:00;32.22;;;18.45;;
50781;SDS011;36749;37.428;-121.972;2023-08-31T07:23:26;37.03;;;19.42;;
50781;SDS011;36749;37.428;-121.972;2023-08-31T07:25:56;36.05;;;19.83;;
50781;SDS011;36749;37.428;-121.972;2023-08-31T07:28:23;39.00;;;19.65;;
50781;SDS011;36749;37.428;-121.972;2023-08-31T07:31:02;39.03;;;20.17;;
50781;SDS011;36749;37.428;-121.972;2023-08-31T07:33:30;36.53;;;20.05;;
50781;SDS011;36749;37.428;-121.972;2023-08-31T07:36:02;40.67;;;19.80;;
50781;SDS011;36749;37.428;-121.972;2023-08-31T07:38:30;39.10;;;21.77;;
50781;SDS011;36749;37.428;-121.972;2023-08-31T07:40:56;37.38;;;20.23;;
50781;SDS011;36749;37.428;-121.972;2023-08-31T07:43:23;40.22;;;20.70;;
50781;SDS011;36749;37.428;-121.972;2023-08-31T07:45:52;40.45;;;20.48;;
50781;SDS011;36749;37.428;-121.972;2023-08-31T07:48:19;39.65;;;21.17;;
50781;SDS011;36749;37.428;-121.972;2023-08-31T07:50:45;41.17;;;21.50;;
50781;SDS011;36749;37.428;-121.972;2023-08-31T07:53:11;37.80;;;20.73;;
50781;SDS011;36749;37.428;-121.972;2023-08-31T07:55:38;38.35;;;20.50;;
50781;SDS011;36749;37.428;-121.972;2023-08-31T07:58:05;41.00;;;21.60;;
50781;SDS011;36749;37.428;-121.972;2023-08-31T08:00:32;34.28;;;21.17;;
50781;SDS011;36749;37.428;-121.972;2023-08-31T08:02:58;40.60;;;20.73;;
50781;SDS011;36749;37.428;-121.972;2023-08-31T08:05:44;37.15;;;21.27;;
50781;SDS011;36749;37.428;-121.972;2023-08-31T08:08:11;42.20;;;21.77;;
50781;SDS011;36749;37.428;-121.972;2023-08-31T08:10:37;42.85;;;22.13;;
50781;SDS011;36749;37.428;-121.972;2023-08-31T08:13:04;39.05;;;21.05;;
50781;SDS011;36749;37.428;-121.972;2023-08-31T08:15:30;42.65;;;22.20;;
50781;SDS011;36749;37.428;-121.972;2023-08-31T08:17:57;36.30;;;21.02;;
50781;SDS011;36749;37.428;-121.972;2023-08-31T08:20:23;43.30;;;21.77;;
50781;SDS011;36749;37.428;-121.972;2023-08-31T08:22:50;41.05;;;20.52;;
50781;SDS011;36749;37.428;-121.972;2023-08-31T08:25:19;40.95;;;22.00;;
50781;SDS011;36749;37.428;-121.972;2023-08-31T08:27:46;39.63;;;22.58;;
50781;SDS011;36749;37.428;-121.972;2023-08-31T08:30:13;42.38;;;22.30;;
50781;SDS011;36749;37.428;-121.972;2023-08-31T08:32:41;42.60;;;20.95;;
50781;SDS011;36749;37.428;-121.972;2023-08-31T08:35:07;41.20;;;21.70;;
50781;SDS011;36749;37.428;-121.972;2023-08-31T08:37:34;37.67;;;21.10;;
50781;SDS011;36749;37.428;-121.972;2023-08-31T08:40:00;44.75;;;23.50;;
50781;SDS011;36749;37.428;-121.972;2023-08-31T08:42:29;42.72;;;22.35;;
50781;SDS011;36749;37.428;-121.972;2023-08-31T08:44:57;41.13;;;23.88;;
50781;SDS011;36749;37.428;-121.972;2023-08-31T08:47:25;47.05;;;22.63;;
50781;SDS011;36749;37.428;-121.972;2023-08-31T08:49:53;42.58;;;24.13;;
50781;SDS011;36749;37.428;-121.972;2023-08-31T08:52:20;42.88;;;23.90;;
50781;SDS011;36749;37.428;-121.972;2023-08-31T08:54:47;44.55;;;23.23;;
50781;SDS011;36749;37.428;-121.972;2023-08-31T08:57:14;36.75;;;21.70;;
50781;SDS011;36749;37.428;-121.972;2023-08-31T08:59:41;42.40;;;22.27;;
50781;SDS011;36749;37.428;-121.972;2023-08-31T09:02:10;39.80;;;23.08;;
50781;SDS011;36749;37.428;-121.972;2023-08-31T09:04:37;39.17;;;21.65;;
50781;SDS011;36749;37.428;-121.972;2023-08-31T09:07:04;40.33;;;21.25;;
50781;SDS011;36749;37.428;-121.972;2023-08-31T09:09:30;36.97;;;20.50;;
50781;SDS011;36749;37.428;-121.972;2023-08-31T09:12:05;39.28;;;21.05;;
50781;SDS011;36749;37.428;-121.972;2023-08-31T09:14:33;38.92;;;19.48;;
50781;SDS011;36749;37.428;-121.972;2023-08-31T09:16:59;39.85;;;19.63;;
50781;SDS011;36749;37.428;-121.972;2023-08-31T09:19:25;40.72;;;20.83;;
50781;SDS011;36749;37.428;-121.972;2023-08-31T09:21:55;45.15;;;20.13;;
50781;SDS011;36749;37.428;-121.972;2023-08-31T09:24:22;41.97;;;19.33;;
50781;SDS011;36749;37.428;-121.972;2023-08-31T09:26:56;41.75;;;19.98;;
50781;SDS011;36749;37.428;-121.972;2023-08-31T09:29:23;43.88;;;19.90;;
50781;SDS011;36749;37.428;-121.972;2023-08-31T09:31:49;42.20;;;19.52;;
50781;SDS011;36749;37.428;-121.972;2023-08-31T09:34:16;40.35;;;19.95;;
50781;SDS011;36749;37.428;-121.972;2023-08-31T09:36:43;40.30;;;18.25;;
50781;SDS011;36749;37.428;-121.972;2023-08-31T09:39:10;45.05;;;18.30;;
50781;SDS011;36749;37.428;-121.972;2023-08-31T09:44:21;47.80;;;17.60;;
50781;SDS011;36749;37.428;-121.972;2023-08-31T09:46:48;35.08;;;16.05;;
50781;SDS011;36749;37.428;-121.972;2023-08-31T09:49:15;44.97;;;17.23;;
50781;SDS011;36749;37.428;-121.972;2023-08-31T09:51:46;43.38;;;17.35;;
50781;SDS011;36749;37.428;-121.972;2023-08-31T09:54:14;42.70;;;18.02;;
50781;SDS011;36749;37.428;-121.972;2023-08-31T09:56:42;37.63;;;16.63;;
50781;SDS011;36749;37.428;-121.972;2023-08-31T09:59:13;49.90;;;18.30;;
50781;SDS011;36749;37.428;-121.972;2023-08-31T10:01:40;50.65;;;18.00;;
50781;SDS011;36749;37.428;-121.972;2023-08-31T10:04:07;39.90;;;17.85;;
50781;SDS011;36749;37.428;-121.972;2023-08-31T10:06:38;41.70;;;18.83;;
50781;SDS011;36749;37.428;-121.972;2023-08-31T10:09:05;40.55;;;18.58;;
50781;SDS011;36749;37.428;-121.972;2023-08-31T10:11:34;46.70;;;18.80;;
50781;SDS011;36749;37.428;-121.972;2023-08-31T10:14:01;45.85;;;18.60;;
50781;SDS011;36749;37.428;-121.972;2023-08-31T10:16:29;43.28;;;19.20;;
50781;SDS011;36749;37.428;-121.972;2023-08-31T10:18:55;40.78;;;18.02;;
50781;SDS011;36749;37.428;-121.972;2023-08-31T10:21:22;41.60;;;17.52;;
50781;SDS011;36749;37.428;-121.972;2023-08-31T10:23:49;46.13;;;18.92;;
50781;SDS011;36749;37.428;-121.972;2023-08-31T10:26:25;49.63;;;19.35;;
50781;SDS011;36749;37.428;-121.972;2023-08-31T10:28:55;40.33;;;18.88;;
50781;SDS011;36749;37.428;-121.972;2023-08-31T10:31:22;48.38;;;19.83;;
50781;SDS011;36749;37.428;-121.972;2023-08-31T10:33:56;41.78;;;18.15;;
50781;SDS011;36749;37.428;-121.972;2023-08-31T10:36:35;41.53;;;17.88;;
50781;SDS011;36749;37.428;-121.972;2023-08-31T10:39:05;37.95;;;18.92;;
50781;SDS011;36749;37.428;-121.972;2023-08-31T10:41:32;45.38;;;18.73;;
50781;SDS011;36749;37.428;-121.972;2023-08-31T10:44:02;48.65;;;19.20;;
50781;SDS011;36749;37.428;-121.972;2023-08-31T10:46:29;43.60;;;18.55;;
50781;SDS011;36749;37.428;-121.972;2023-08-31T10:48:59;48.95;;;19.55;;
50781;SDS011;36749;37.428;-121.972;2023-08-31T10:51:35;42.75;;;18.27;;
50781;SDS011;36749;37.428;-121.972;2023-08-31T10:54:25;52.05;;;21.13;;
50781;SDS011;36749;37.428;-121.972;2023-08-31T10:59:41;49.80;;;19.33;;
50781;SDS011;36749;37.428;-121.972;2023-08-31T11:02:28;44.95;;;19.38;;
50781;SDS011;36749;37.428;-121.972;2023-08-31T11:05:02;47.45;;;20.65;;
50781;SDS011;36749;37.428;-121.972;2023-08-31T11:07:31;43.83;;;19.50;;
50781;SDS011;36749;37.428;-121.972;2023-08-31T11:10:13;49.10;;;20.50;;
50781;SDS011;36749;37.428;-121.972;2023-08-31T11:12:45;55.13;;;20.48;;
50781;SDS011;36749;37.428;-121.972;2023-08-31T11:15:12;46.58;;;19.35;;
50781;SDS011;36749;37.428;-121.972;2023-08-31T11:17:40;50.78;;;19.05;;
50781;SDS011;36749;37.428;-121.972;2023-08-31T11:20:08;55.92;;;17.25;;
50781;SDS011;36749;37.428;-121.972;2023-08-31T11:22:38;50.40;;;17.73;;
50781;SDS011;36749;37.428;-121.972;2023-08-31T11:25:08;40.15;;;16.63;;
50781;SDS011;36749;37.428;-121.972;2023-08-31T11:27:35;48.67;;;17.23;;
50781;SDS011;36749;37.428;-121.972;2023-08-31T11:30:03;51.53;;;18.80;;
50781;SDS011;36749;37.428;-121.972;2023-08-31T11:32:49;46.90;;;16.27;;
50781;SDS011;36749;37.428;-121.972;2023-08-31T11:35:16;49.13;;;17.55;;
50781;SDS011;36749;37.428;-121.972;2023-08-31T11:37:44;45.55;;;15.98;;
50781;SDS011;36749;37.428;-121.972;2023-08-31T11:40:11;44.88;;;18.17;;
50781;SDS011;36749;37.428;-121.972;2023-08-31T11:42:40;48.72;;;18.05;;
50781;SDS011;36749;37.428;-121.972;2023-08-31T11:45:06;43.72;;;17.13;;
50781;SDS011;36749;37.428;-121.972;2023-08-31T11:47:33;44.53;;;17.27;;
50781;SDS011;36749;37.428;-121.972;2023-08-31T11:49:59;47.70;;;17.73;;
50781;SDS011;36749;37.428;-121.972;2023-08-31T11:52:28;46.95;;;18.45;;
50781;SDS011;36749;37.428;-121.972;2023-08-31T11:54:56;42.22;;;17.65;;
50781;SDS011;36749;37.428;-121.972;2023-08-31T11:57:26;37.63;;;15.95;;
50781;SDS011;36749;37.428;-121.972;2023-08-31T11:59:54;43.15;;;17.30;;
50781;SDS011;36749;37.428;-121.972;2023-08-31T12:02:24;41.20;;;16.80;;
50781;SDS011;36749;37.428;-121.972;2023-08-31T12:04:50;50.75;;;19.05;;
50781;SDS011;36749;37.428;-121.972;2023-08-31T12:07:16;94.88;;;21.63;;
50781;SDS011;36749;37.428;-121.972;2023-08-31T12:09:44;68.88;;;18.88;;
50781;SDS011;36749;37.428;-121.972;2023-08-31T12:12:17;51.20;;;17.83;;
50781;SDS011;36749;37.428;-121.972;2023-08-31T12:17:12;47.03;;;17.00;;
50781;SDS011;36749;37.428;-121.972;2023-08-31T12:19:39;46.58;;;16.90;;
50781;SDS011;36749;37.428;-121.972;2023-08-31T12:22:05;52.53;;;17.08;;
50781;SDS011;36749;37.428;-121.972;2023-08-31T12:24:38;54.35;;;17.73;;
50781;SDS011;36749;37.428;-121.972;2023-08-31T12:27:08;55.58;;;16.75;;
50781;SDS011;36749;37.428;-121.972;2023-08-31T12:29:34;49.08;;;16.98;;
50781;SDS011;36749;37.428;-121.972;2023-08-31T12:32:01;42.58;;;15.15;;
50781;SDS011;36749;37.428;-121.972;2023-08-31T12:34:28;42.92;;;16.70;;
50781;SDS011;36749;37.428;-121.972;2023-08-31T12:36:56;46.03;;;16.75;;
50781;SDS011;36749;37.428;-121.972;2023-08-31T12:39:25;46.42;;;16.42;;
50781;SDS011;36749;37.428;-121.972;2023-08-31T12:41:52;49.42;;;16.17;;
50781;SDS011;36749;37.428;-121.972;2023-08-31T12:44:18;47.65;;;17.05;;
50781;SDS011;36749;37.428;-121.972;2023-08-31T12:46:44;49.05;;;15.80;;
50781;SDS011;36749;37.428;-121.972;2023-08-31T12:49:11;52.88;;;16.15;;
50781;SDS011;36749;37.428;-121.972;2023-08-31T12:51:37;40.00;;;15.85;;
50781;SDS011;36749;37.428;-121.972;2023-08-31T12:54:03;34.85;;;14.68;;
50781;SDS011;36749;37.428;-121.972;2023-08-31T12:56:29;49.20;;;16.33;;
50781;SDS011;36749;37.428;-121.972;2023-08-31T12:58:55;43.10;;;14.85;;
50781;SDS011;36749;37.428;-121.972;2023-08-31T13:01:22;43.20;;;15.15;;
50781;SDS011;36749;37.428;-121.972;2023-08-31T13:03:51;51.03;;;15.95;;
50781;SDS011;36749;37.428;-121.972;2023-08-31T13:06:18;51.75;;;15.32;;
50781;SDS011;36749;37.428;-121.972;2023-08-31T13:08:44;42.97;;;15.50;;
50781;SDS011;36749;37.428;-121.972;2023-08-31T13:11:11;41.72;;;15.80;;
50781;SDS011;36749;37.428;-121.972;2023-08-31T13:13:38;36.70;;;14.40;;
50781;SDS011;36749;37.428;-121.972;2023-08-31T13:16:04;47.35;;;15.02;;
50781;SDS011;36749;37.428;-121.972;2023-08-31T13:18:30;43.50;;;15.35;;
50781;SDS011;36749;37.428;-121.972;2023-08-31T13:20:57;42.67;;;15.73;;
50781;SDS011;36749;37.428;-121.972;2023-08-31T13:23:23;48.38;;;15.20;;
50781;SDS011;36749;37.428;-121.972;2023-08-31T13:25:50;43.80;;;15.30;;
50781;SDS011;36749;37.428;-121.972;2023-08-31T13:28:16;45.85;;;15.40;;
50781;SDS011;36749;37.428;-121.972;2023-08-31T13:30:43;46.22;;;15.15;;
50781;SDS011;36749;37.428;-121.972;2023-08-31T13:33:09;46.17;;;15.93;;
50781;SDS011;36749;37.428;-121.972;2023-08-31T13:35:35;37.50;;;14.30;;
50781;SDS011;36749;37.428;-121.972;2023-08-31T13:38:02;40.85;;;15.57;;
50781;SDS011;36749;37.428;-121.972;2023-08-31T13:40:29;38.05;;;13.98;;
50781;SDS011;36749;37.428;-121.972;2023-08-31T13:42:58;37.88;;;13.75;;
50781;SDS011;36749;37.428;-121.972;2023-08-31T13:45:30;46.22;;;15.05;;
50781;SDS011;36749;37.428;-121.972;2023-08-31T13:47:58;42.60;;;14.75;;
50781;SDS011;36749;37.428;-121.972;2023-08-31T13:50:28;42.33;;;13.30;;
50781;SDS011;36749;37.428;-121.972;2023-08-31T13:52:54;40.80;;;14.57;;
50781;SDS011;36749;37.428;-121.972;2023-08-31T13:55:20;47.20;;;13.95;;
50781;SDS011;36749;37.428;-121.972;2023-08-31T13:57:48;55.78;;;14.55;;
50781;SDS011;36749;37.428;-121.972;2023-08-31T14:00:15;55.08;;;15.27;;
50781;SDS011;36749;37.428;-121.972;2023-08-31T14:02:42;45.92;;;14.10;;